Terminal Aerodrome Forecast
Issued by NWS Duluth, MN

Home | Current Version | Previous Version | Text Only | Print | Product List | Glossary On
Versions: 1 2 3 4 5 6 7 8 9 10 11 12 13 14 15 16 17 18 19 20 21 22 23 24 25 26 27 28 29 30 31
000
FTUS43 KDLH 050525
TAFINL
TAF
KINL 050525Z 0506/0606 00000KT P6SM FEW045
      TEMPO 0506/0508 4SM BR
     FM050800 00000KT 1 1/2SM BR BCFG SCT045
     FM051200 18004KT P6SM SCT040 SCT150
      TEMPO 0512/0513 4SM BR
     FM052300 11008KT P6SM VCSH SCT050 OVC120=

USA.gov is the U.S. government's official web portal to all federal, state and local government web resources and services.